createdAt,value
2024-04-15T00:03:35.056Z,1.80
2024-04-15T00:08:59.413Z,2.00
2024-04-15T00:14:26.248Z,1.90
2024-04-15T00:19:50.445Z,1.80
2024-04-15T00:25:14.712Z,2.17
2024-04-15T00:30:41.604Z,1.97
2024-04-15T00:36:05.986Z,1.90
2024-04-15T00:41:30.257Z,2.03
2024-04-15T00:46:57.112Z,1.83
2024-04-15T00:52:21.609Z,2.17
2024-04-15T00:57:46.643Z,2.40
2024-04-15T01:03:14.068Z,3.30
2024-04-15T01:08:38.430Z,2.20
2024-04-15T01:14:03.247Z,2.50
2024-04-15T01:19:30.085Z,2.73
2024-04-15T01:24:56.993Z,2.57
2024-04-15T01:30:21.286Z,2.50
2024-04-15T01:35:45.908Z,2.47
2024-04-15T01:41:12.752Z,3.07
2024-04-15T01:46:36.998Z,2.93
2024-04-15T01:52:01.331Z,3.07
2024-04-15T01:57:28.289Z,3.07
2024-04-15T02:02:52.500Z,2.73
2024-04-15T02:08:16.735Z,3.57
2024-04-15T02:13:43.561Z,3.53
2024-04-15T02:19:07.806Z,3.47
2024-04-15T02:24:32.180Z,3.83
2024-04-15T02:29:59.385Z,4.10
2024-04-15T02:35:23.719Z,4.00
2024-04-15T02:40:48.128Z,4.80
2024-04-15T02:46:14.985Z,5.03
2024-04-15T02:51:39.278Z,4.87
2024-04-15T02:57:03.487Z,5.13
2024-04-15T03:02:30.383Z,5.50
2024-04-15T03:07:54.639Z,6.43
2024-04-15T03:13:20.003Z,6.00
2024-04-15T03:18:48.345Z,6.13
2024-04-15T03:24:12.607Z,6.33
2024-04-15T03:29:36.883Z,5.93
2024-04-15T03:35:03.781Z,6.10
2024-04-15T03:40:28.017Z,6.43
2024-04-15T03:45:52.254Z,6.07
2024-04-15T03:51:19.100Z,6.37
2024-04-15T03:56:43.366Z,6.17
2024-04-15T04:02:07.863Z,6.47
2024-04-15T04:07:34.968Z,6.73
2024-04-15T04:12:59.256Z,6.37
2024-04-15T04:18:24.037Z,6.20
2024-04-15T04:23:50.913Z,6.53
2024-04-15T04:29:15.256Z,6.20
2024-04-15T04:34:39.513Z,5.20
2024-04-15T04:40:06.783Z,5.33
2024-04-15T04:45:31.111Z,4.80
2024-04-15T04:50:55.283Z,4.37
2024-04-15T04:56:22.623Z,3.93
2024-04-15T05:01:46.965Z,6.17
2024-04-15T05:07:11.257Z,4.70
2024-04-15T05:12:38.168Z,4.00
2024-04-15T05:18:02.465Z,3.90
2024-04-15T05:23:26.761Z,4.03
2024-04-15T05:28:53.651Z,3.87
2024-04-15T05:34:18.645Z,3.87
2024-04-15T05:39:45.103Z,4.43
2024-04-15T05:45:13.293Z,3.87
2024-04-15T05:50:37.551Z,4.13
2024-04-15T05:56:01.894Z,3.70
2024-04-15T06:01:28.824Z,3.30
2024-04-15T06:06:53.141Z,3.37
2024-04-15T06:12:17.362Z,3.60
2024-04-15T06:17:44.198Z,3.50
2024-04-15T06:23:08.458Z,3.00
2024-04-15T06:28:32.720Z,2.90
2024-04-15T06:34:01.125Z,2.60
2024-04-15T06:39:25.364Z,2.60
2024-04-15T06:44:49.737Z,2.43
2024-04-15T06:50:16.534Z,2.43
2024-04-15T06:55:40.755Z,2.33
2024-04-15T07:01:05.089Z,2.33
2024-04-15T07:06:32.152Z,3.33
2024-04-15T07:11:56.740Z,2.63
2024-04-15T07:17:20.955Z,2.87
2024-04-15T07:22:47.769Z,2.93
2024-04-15T07:28:12.076Z,2.33
2024-04-15T07:33:36.345Z,2.33
2024-04-15T07:39:03.348Z,2.43
2024-04-15T07:44:27.590Z,2.50
2024-04-15T07:49:52.597Z,2.33
2024-04-15T07:55:19.865Z,2.40
2024-04-15T08:00:45.162Z,2.40
2024-04-15T08:06:10.006Z,2.57
2024-04-15T08:11:37.024Z,1.90
2024-04-15T08:17:01.332Z,3.40
2024-04-15T08:22:26.216Z,2.77
2024-04-15T08:27:53.167Z,2.43
2024-04-15T08:33:17.625Z,2.83
2024-04-15T08:38:45.751Z,2.10
2024-04-15T08:44:13.971Z,1.70
2024-04-15T08:49:38.226Z,1.83
2024-04-15T08:55:05.287Z,2.47
2024-04-15T09:00:34.096Z,1.60
2024-04-15T09:05:59.786Z,1.50
2024-04-15T09:11:26.060Z,1.80
2024-04-15T09:16:55.361Z,1.63
2024-04-15T09:22:19.650Z,1.80
2024-04-15T09:27:44.502Z,1.63
2024-04-15T09:33:12.680Z,1.73
2024-04-15T09:38:41.302Z,1.40
2024-04-15T09:44:07.294Z,1.80
2024-04-15T09:49:34.220Z,1.57
2024-04-15T09:55:01.554Z,1.20
2024-04-15T10:00:26.148Z,1.70
2024-04-15T10:05:55.805Z,1.70
2024-04-15T10:11:20.249Z,1.80
2024-04-15T10:16:48.559Z,1.37
2024-04-15T10:22:17.200Z,1.50
2024-04-15T10:27:41.778Z,1.30
2024-04-15T10:33:07.372Z,1.47
2024-04-15T10:38:34.459Z,1.50
2024-04-15T10:43:59.215Z,1.07
2024-04-15T10:49:23.846Z,1.57
2024-04-15T10:54:50.752Z,1.30
2024-04-15T11:00:16.082Z,1.43
2024-04-15T11:05:40.424Z,1.53
2024-04-15T11:11:07.538Z,1.17
2024-04-15T11:16:32.207Z,1.23
2024-04-15T11:22:04.977Z,1.37
2024-04-15T11:27:33.460Z,1.40
2024-04-15T11:32:58.110Z,0.80
2024-04-15T11:38:23.666Z,1.30
2024-04-15T11:43:50.638Z,1.80
2024-04-15T11:49:14.994Z,1.27
2024-04-15T11:54:40.450Z,1.00
2024-04-15T12:00:08.221Z,0.90
2024-04-15T12:05:32.562Z,1.23
2024-04-15T12:10:56.858Z,1.13
2024-04-15T12:16:23.792Z,0.80
2024-04-15T12:21:48.044Z,0.73
2024-04-15T12:27:12.295Z,0.90
2024-04-15T12:32:39.240Z,1.27
2024-04-15T12:38:03.639Z,1.23
2024-04-15T12:43:28.111Z,0.77
2024-04-15T12:48:55.119Z,0.90
2024-04-15T12:54:19.369Z,0.80
2024-04-15T12:59:43.627Z,0.80
2024-04-15T13:05:10.878Z,1.00
2024-04-15T13:10:35.615Z,0.73
2024-04-15T13:15:59.940Z,0.90
2024-04-15T13:21:26.825Z,0.60
2024-04-15T13:26:51.040Z,0.90
2024-04-15T13:32:18.216Z,0.60
2024-04-15T13:37:47.503Z,0.93
2024-04-15T13:43:12.666Z,0.60
2024-04-15T13:48:37.014Z,0.53
2024-04-15T13:54:03.885Z,0.63
2024-04-15T13:59:29.385Z,0.80
2024-04-15T14:04:53.970Z,0.50
2024-04-15T14:10:21.769Z,0.63
2024-04-15T14:15:46.449Z,0.73
2024-04-15T14:21:10.751Z,1.00
2024-04-15T14:26:38.702Z,1.10
2024-04-15T14:32:03.107Z,0.50
2024-04-15T14:37:27.438Z,0.50
2024-04-15T14:42:55.169Z,0.60
2024-04-15T14:48:19.703Z,0.57
2024-04-15T14:53:47.364Z,0.50
2024-04-15T14:59:14.646Z,0.73
2024-04-15T15:04:38.900Z,0.30
2024-04-15T15:10:03.363Z,0.50
2024-04-15T15:15:30.309Z,0.20
2024-04-15T15:20:54.540Z,0.47
2024-04-15T15:26:19.723Z,0.40
2024-04-15T15:31:46.620Z,0.50
2024-04-15T15:37:11.422Z,0.30
2024-04-15T15:42:35.703Z,0.40
2024-04-15T15:48:03.623Z,0.30
2024-04-15T15:53:28.111Z,0.40
2024-04-15T15:58:52.375Z,0.80
2024-04-15T16:04:19.479Z,0.40
2024-04-15T16:09:43.798Z,0.30
2024-04-15T16:15:08.386Z,0.47
2024-04-15T16:20:35.282Z,0.77
2024-04-15T16:26:00.234Z,0.60
2024-04-15T16:31:24.682Z,1.10
2024-04-15T16:36:51.924Z,0.90
2024-04-15T16:42:16.197Z,0.67
2024-04-15T16:47:40.554Z,0.70
2024-04-15T16:53:07.835Z,1.03
2024-04-15T16:58:32.458Z,0.87
2024-04-15T17:03:57.267Z,1.00
2024-04-15T17:09:24.829Z,1.10
2024-04-15T17:14:49.136Z,0.73
2024-04-15T17:20:16.954Z,0.80
2024-04-15T17:25:45.680Z,1.20
2024-04-15T17:31:09.978Z,0.50
2024-04-15T17:36:34.311Z,0.70
2024-04-15T17:42:02.762Z,0.80
2024-04-15T17:47:27.334Z,0.80
2024-04-15T17:52:51.757Z,0.90
2024-04-15T17:58:18.712Z,0.40
2024-04-15T18:03:43.185Z,0.70
2024-04-15T18:09:08.174Z,0.70
2024-04-15T18:14:35.660Z,0.63
2024-04-15T18:20:00.139Z,0.70
2024-04-15T18:25:24.648Z,0.87
2024-04-15T18:30:51.894Z,0.77
2024-04-15T18:36:16.658Z,0.77
2024-04-15T18:41:40.905Z,0.80
2024-04-15T18:47:08.199Z,0.63
2024-04-15T18:52:32.602Z,0.70
2024-04-15T18:57:57.258Z,0.80
2024-04-15T19:03:24.324Z,0.80
2024-04-15T19:08:48.877Z,0.80
2024-04-15T19:14:13.719Z,0.90
2024-04-15T19:19:42.243Z,1.00
2024-04-15T19:25:07.420Z,0.90
2024-04-15T19:30:32.644Z,0.63
2024-04-15T19:36:01.042Z,1.00
2024-04-15T19:41:26.089Z,1.00
2024-04-15T19:46:50.865Z,1.10
2024-04-15T19:52:17.781Z,1.00
2024-04-15T19:57:44.654Z,1.00
2024-04-15T20:03:10.748Z,1.13
2024-04-15T20:08:37.980Z,1.47
2024-04-15T20:14:03.825Z,1.00
2024-04-15T20:19:29.304Z,1.13
2024-04-15T20:24:56.263Z,0.90
2024-04-15T20:30:20.645Z,0.90
2024-04-15T20:35:44.941Z,0.83
2024-04-15T20:41:12.172Z,1.00
2024-04-15T20:46:36.779Z,0.90
2024-04-15T20:52:01.213Z,1.10
2024-04-15T20:57:28.151Z,1.13
2024-04-15T21:02:52.894Z,0.90
2024-04-15T21:08:17.260Z,1.27
2024-04-15T21:13:44.167Z,0.67
2024-04-15T21:19:08.563Z,0.80
2024-04-15T21:24:32.843Z,0.70
2024-04-15T21:29:59.853Z,0.60
2024-04-15T21:35:24.166Z,1.20
2024-04-15T21:40:48.485Z,0.70
2024-04-15T21:46:16.163Z,1.00
2024-04-15T21:51:40.522Z,1.13
2024-04-15T21:57:04.878Z,1.23
2024-04-15T22:02:31.849Z,1.27
2024-04-15T22:07:56.119Z,1.13
2024-04-15T22:13:20.759Z,1.60
2024-04-15T22:18:47.676Z,2.23
2024-04-15T22:24:12.172Z,1.20
2024-04-15T22:29:36.496Z,1.30
2024-04-15T22:35:03.974Z,1.00
2024-04-15T22:40:28.371Z,1.90
2024-04-15T22:45:52.728Z,1.60
2024-04-15T22:51:19.639Z,1.43
2024-04-15T22:56:44.083Z,1.50
2024-04-15T23:02:08.530Z,1.57
2024-04-15T23:07:35.805Z,2.13
2024-04-15T23:13:00.114Z,1.33
2024-04-15T23:18:26.270Z,1.20
2024-04-15T23:23:53.192Z,1.20
2024-04-15T23:29:17.861Z,1.03
2024-04-15T23:34:42.228Z,0.90
2024-04-15T23:40:09.950Z,0.70
2024-04-15T23:45:34.234Z,0.70
2024-04-15T23:50:58.863Z,0.70
2024-04-15T23:56:25.751Z,0.80
